Trade, Tennessee
Current Conditions -  °F | °C
As of 9:15 AM on Thursday 23 Oct 2014 (Local Time) from KTNB Reporting Station
Clear Clear  
Wind Chill: 32°   Ceiling: Unl
Heat Index: 41°   Visibility: 10mi
Dew Point: 33°   Wind: 18mph
Humidity: 72%   Direction: 300°WNW
Pressure: 30.14"   Gusts: 28mph
Location:  36.35°N, 81.75°W
Report Text: KTNB 231315Z AUTO 30016G24KT 10SM CLR 05/01 A3014 RMK AO2 T00510005
Loading
Personal Weather Stations






























Interactive Weather Map
Tropical Storm Tracking
New forecast layout! Learn more

10-Day Weather Forecast

Advertisements
Track Severe Weather on mobile